Time;durP1;ratioP1;P1;durP2;ratioP2;P2;SDS_P1;SDS_P2;PMS_P1;PMS_P2;Temp;Humidity;BMP_temperature;BMP_pressure;BME280_temperature;BME280_humidity;BME280_pressure;Samples;Min_cycle;Max_cycle;Signal;HPM_P1;HPM_P2
2022/09/14 11:32:54;;;;;;;8.27;4.70;;;16.40;99.90;;;;;;6230537;22;20211;-68
2022/09/14 11:35:23;;;;;;;7.30;4.70;;;16.50;99.90;;;;;;6243909;23;20731;-67
2022/09/14 11:37:56;;;;;;;8.00;4.40;;;16.40;99.90;;;;;;6245562;23;20511;-67
2022/09/14 11:40:28;;;;;;;6.73;4.40;;;16.50;99.90;;;;;;6246377;23;20196;-67
2022/09/14 11:42:58;;;;;;;6.87;4.47;;;16.60;99.90;;;;;;6246444;23;20202;-67
2022/09/14 11:45:31;;;;;;;5.70;4.07;;;16.60;99.90;;;;;;6245895;23;20635;-67
2022/09/14 11:48:09;;;;;;;6.07;4.43;;;16.50;99.90;;;;;;6245795;23;20495;-74
2022/09/14 11:50:38;;;;;;;5.90;4.10;;;16.50;99.90;;;;;;6245873;23;20196;-68
2022/09/14 11:53:11;;;;;;;5.17;4.07;;;16.70;99.90;;;;;;6246670;23;20175;-66
2022/09/14 11:55:42;;;;;;;5.43;4.00;;;16.70;99.90;;;;;;6246291;23;20175;-66
2022/09/14 11:58:18;;;;;;;6.03;4.00;;;16.80;99.90;;;;;;6245683;23;20203;-68
2022/09/14 12:01:04;;;;;;;6.23;4.43;;;16.90;99.90;;;;;;6246147;23;20195;-68
2022/09/14 12:04:04;;;;;;;6.47;4.23;;;16.80;99.90;;;;;;6246824;23;20616;-67
2022/09/14 12:06:50;;;;;;;6.93;4.40;;;16.60;99.90;;;;;;6242604;23;20186;-71
2022/09/14 12:09:52;;;;;;;7.37;4.23;;;16.40;99.90;;;;;;6245757;23;20231;-68
2022/09/14 12:12:30;;;;;;;6.10;3.90;;;16.30;99.90;;;;;;6246824;23;20214;-68
2022/09/14 12:15:00;;;;;;;5.67;4.27;;;16.30;99.90;;;;;;6245026;23;20175;-69
2022/09/14 12:17:31;;;;;;;5.90;4.10;;;16.30;99.90;;;;;;6246626;23;20208;-69
2022/09/14 12:20:15;;;;;;;6.87;4.50;;;16.30;99.90;;;;;;6246436;23;20222;-70
2022/09/14 12:22:42;;;;;;;6.93;4.03;;;16.40;99.90;;;;;;6245515;23;20179;-69
2022/09/14 12:25:17;;;;;;;6.13;4.27;;;16.40;99.90;;;;;;6246730;23;20176;-67
2022/09/14 12:27:46;;;;;;;6.87;3.80;;;16.30;99.90;;;;;;6246810;23;20183;-67
2022/09/14 12:30:55;;;;;;;5.07;3.63;;;16.40;99.90;;;;;;6246990;23;20202;-69
2022/09/14 12:34:04;;;;;;;5.47;3.70;;;16.50;99.90;;;;;;6246521;23;20187;-67
2022/09/14 12:37:02;;;;;;;6.87;4.17;;;16.60;99.90;;;;;;6246431;23;20237;-68
2022/09/14 12:39:31;;;;;;;6.30;4.70;;;16.70;99.90;;;;;;6194746;23;20219;-67
2022/09/14 12:42:04;;;;;;;6.67;4.30;;;16.50;99.90;;;;;;6246512;23;20180;-68
2022/09/14 12:44:34;;;;;;;7.37;3.93;;;16.30;99.90;;;;;;6246169;23;20180;-67
2022/09/14 12:47:34;;;;;;;6.23;4.27;;;16.40;99.90;;;;;;6246630;23;20175;-68
2022/09/14 12:50:12;;;;;;;6.23;3.70;;;16.40;99.90;;;;;;6246100;23;20210;-68
2022/09/14 12:52:44;;;;;;;6.67;3.93;;;16.50;99.90;;;;;;6246923;23;20175;-71
2022/09/14 12:55:26;;;;;;;6.57;4.20;;;16.40;99.90;;;;;;6246908;23;20175;-68
2022/09/14 12:58:03;;;;;;;8.77;4.03;;;16.40;99.90;;;;;;6246469;23;20651;-68
2022/09/14 13:00:45;;;;;;;6.33;4.00;;;16.30;99.90;;;;;;6246553;23;20195;-68
2022/09/14 13:03:27;;;;;;;7.73;4.30;;;16.30;99.90;;;;;;6246758;23;20175;-67
2022/09/14 13:05:56;;;;;;;8.07;4.60;;;16.30;99.90;;;;;;6246149;23;20198;-67
2022/09/14 13:08:24;;;;;;;7.10;4.80;;;16.30;99.90;;;;;;6246287;23;20186;-68
2022/09/14 13:10:52;;;;;;;8.03;4.53;;;16.40;99.90;;;;;;6245541;23;20206;-68
2022/09/14 13:13:22;;;;;;;9.10;4.93;;;16.50;99.90;;;;;;6245758;23;20179;-67
2022/09/14 13:15:52;;;;;;;7.10;4.70;;;16.60;99.90;;;;;;6245881;23;20180;-72
2022/09/14 13:18:29;;;;;;;6.93;4.57;;;16.50;99.90;;;;;;6245362;23;20213;-67
2022/09/14 13:20:59;;;;;;;8.90;4.80;;;16.70;99.90;;;;;;6245473;23;20206;-69
2022/09/14 13:23:30;;;;;;;7.37;4.60;;;16.80;99.90;;;;;;6246216;23;20184;-70
2022/09/14 13:25:57;;;;;;;8.07;4.73;;;17.00;99.90;;;;;;6243847;23;20233;-69
2022/09/14 13:28:27;;;;;;;7.67;5.30;;;16.90;99.90;;;;;;6240914;23;20189;-68
2022/09/14 13:30:56;;;;;;;8.80;5.07;;;16.90;99.90;;;;;;6254047;23;20274;-67
2022/09/14 13:33:23;;;;;;;8.70;5.27;;;16.80;99.90;;;;;;6256342;23;20187;-66
2022/09/14 13:35:51;;;;;;;7.07;5.03;;;16.90;99.90;;;;;;6260798;23;20180;-68
2022/09/14 13:38:23;;;;;;;11.53;5.67;;;17.00;99.90;;;;;;6260153;23;20200;-66
2022/09/14 13:40:53;;;;;;;10.53;5.50;;;17.10;99.90;;;;;;6260107;23;20274;-69
2022/09/14 13:43:21;;;;;;;8.93;5.47;;;17.10;99.90;;;;;;6247079;23;20632;-68
2022/09/14 13:45:50;;;;;;;11.50;5.67;;;17.10;99.90;;;;;;6247369;23;20182;-68
2022/09/14 13:48:25;;;;;;;9.03;5.30;;;17.00;99.90;;;;;;6248327;23;20235;-68
2022/09/14 13:50:52;;;;;;;10.90;6.33;;;17.00;99.90;;;;;;6247060;23;20206;-68
2022/09/14 13:53:47;;;;;;;9.30;5.17;;;16.90;99.90;;;;;;6246315;23;20639;-68
2022/09/14 13:56:27;;;;;;;7.93;4.97;;;17.10;99.90;;;;;;6246186;23;20706;-68
2022/09/14 13:59:14;;;;;;;8.60;4.87;;;17.10;99.90;;;;;;6245764;23;20242;-68
2022/09/14 14:01:42;;;;;;;8.53;4.90;;;17.20;99.90;;;;;;6245964;23;20176;-69
2022/09/14 14:04:26;;;;;;;8.37;4.87;;;17.00;99.90;;;;;;6245223;23;20650;-68
2022/09/14 14:07:06;;;;;;;8.63;5.20;;;17.00;99.90;;;;;;6245199;23;20722;-68
2022/09/14 14:09:49;;;;;;;7.20;4.97;;;17.10;99.90;;;;;;6245980;23;20203;-68
2022/09/14 14:12:24;;;;;;;9.13;4.57;;;17.10;99.90;;;;;;6246237;23;20175;-68
2022/09/14 14:14:55;;;;;;;9.37;5.53;;;17.00;99.90;;;;;;6246219;23;20194;-76
2022/09/14 14:17:35;;;;;;;7.97;4.80;;;16.90;99.90;;;;;;6245270;23;20619;-68
2022/09/14 14:20:31;;;;;;;10.27;5.40;;;16.90;99.90;;;;;;6245241;23;20663;-67
2022/09/14 14:23:00;;;;;;;8.70;5.00;;;16.90;99.90;;;;;;6232449;23;20509;-72
2022/09/14 14:25:34;;;;;;;8.17;4.80;;;17.00;99.90;;;;;;6245308;23;20481;-68
2022/09/14 14:28:02;;;;;;;12.20;5.17;;;17.10;99.90;;;;;;6242625;23;20182;-68
2022/09/14 14:30:30;;;;;;;12.40;4.83;;;17.00;99.90;;;;;;6247165;23;20203;-68
2022/09/14 14:32:59;;;;;;;9.37;5.53;;;17.00;99.90;;;;;;6247509;23;20562;-68
2022/09/14 14:35:28;;;;;;;9.60;4.90;;;17.00;99.90;;;;;;6247961;23;20183;-67
2022/09/14 14:37:54;;;;;;;10.03;5.10;;;17.10;99.90;;;;;;6247542;23;20175;-68
2022/09/14 14:40:22;;;;;;;9.07;5.53;;;16.90;99.90;;;;;;6247238;23;20196;-75
2022/09/14 14:42:51;;;;;;;6.87;5.00;;;17.00;99.90;;;;;;6247605;23;20175;-68
2022/09/14 14:45:20;;;;;;;6.23;4.27;;;17.10;99.90;;;;;;6247723;23;20198;-68
2022/09/14 14:47:49;;;;;;;7.83;4.37;;;17.10;99.90;;;;;;6247586;23;20175;-71
2022/09/14 14:50:18;;;;;;;5.93;4.63;;;17.10;99.90;;;;;;6247777;23;20200;-67
2022/09/14 14:52:44;;;;;;;8.03;5.20;;;17.10;99.90;;;;;;6247723;23;20176;-68
2022/09/14 14:55:11;;;;;;;8.47;4.37;;;17.00;99.90;;;;;;6247370;23;20175;-68
2022/09/14 14:57:38;;;;;;;8.00;4.47;;;16.70;99.90;;;;;;6247552;23;20176;-68
2022/09/14 15:00:13;;;;;;;5.67;4.37;;;16.50;99.90;;;;;;6247532;23;20257;-68
2022/09/14 15:02:42;;;;;;;7.50;4.20;;;16.70;99.90;;;;;;6247920;23;20175;-74
2022/09/14 15:05:09;;;;;;;5.10;3.50;;;16.60;99.90;;;;;;6247470;23;20179;-73
2022/09/14 15:07:36;;;;;;;7.63;3.30;;;16.60;99.90;;;;;;6247770;23;20175;-68
2022/09/14 15:10:03;;;;;;;5.33;3.30;;;16.80;99.90;;;;;;6247440;23;20209;-68
2022/09/14 15:12:31;;;;;;;6.70;3.33;;;16.60;99.90;;;;;;6247701;23;20539;-68
2022/09/14 15:14:58;;;;;;;8.80;3.33;;;16.50;99.90;;;;;;6247227;23;20179;-71
2022/09/14 15:17:26;;;;;;;5.40;3.00;;;16.60;99.90;;;;;;6247498;23;20176;-68
2022/09/14 15:19:53;;;;;;;3.93;2.90;;;16.60;99.90;;;;;;6247517;23;20211;-67
2022/09/14 15:22:20;;;;;;;4.10;2.47;;;16.60;99.90;;;;;;6247870;23;20176;-68
2022/09/14 15:24:47;;;;;;;5.40;2.60;;;16.50;99.90;;;;;;6247193;23;20176;-68
2022/09/14 15:27:13;;;;;;;5.10;2.57;;;16.40;99.90;;;;;;6246794;23;20180;-69
2022/09/14 15:29:40;;;;;;;6.90;3.43;;;16.30;99.90;;;;;;6246624;23;20202;-68
2022/09/14 15:32:07;;;;;;;3.77;2.67;;;16.20;99.90;;;;;;6246671;23;20258;-70
2022/09/14 15:34:35;;;;;;;5.37;2.57;;;16.10;99.90;;;;;;6247060;23;20258;-71
2022/09/14 15:37:02;;;;;;;4.97;2.83;;;16.10;99.90;;;;;;6246746;23;20711;-68
2022/09/14 15:39:30;;;;;;;5.53;2.90;;;16.00;99.90;;;;;;6247431;23;20211;-73
2022/09/14 15:41:57;;;;;;;7.20;3.30;;;15.80;99.90;;;;;;6246815;23;20229;-74
2022/09/14 15:44:24;;;;;;;9.27;3.30;;;15.70;99.90;;;;;;6247248;23;20258;-68
2022/09/14 15:46:51;;;;;;;6.53;2.87;;;15.60;99.90;;;;;;6247205;23;20176;-69
2022/09/14 15:49:20;;;;;;;6.13;2.83;;;15.60;99.90;;;;;;6247007;23;20233;-68
2022/09/14 15:51:50;;;;;;;6.90;2.97;;;15.50;99.90;;;;;;6247333;23;20214;-68
2022/09/14 15:54:18;;;;;;;7.07;2.67;;;15.40;99.90;;;;;;6246968;23;20176;-68
2022/09/14 15:56:49;;;;;;;5.70;2.97;;;15.40;99.90;;;;;;6247200;23;20175;-68
2022/09/14 15:59:17;;;;;;;4.60;2.83;;;15.50;99.90;;;;;;6246456;23;20258;-68
2022/09/14 16:01:44;;;;;;;5.33;3.13;;;15.60;99.90;;;;;;6247033;23;20180;-68
2022/09/14 16:04:11;;;;;;;8.33;3.60;;;15.70;99.90;;;;;;6246626;23;20695;-68
2022/09/14 16:06:38;;;;;;;7.63;4.10;;;15.70;99.90;;;;;;6247419;23;20180;-67
2022/09/14 16:09:09;;;;;;;8.00;3.63;;;15.70;99.90;;;;;;6244774;23;20180;-71
2022/09/14 16:11:36;;;;;;;6.33;3.43;;;15.60;99.90;;;;;;6244707;23;20186;-69
2022/09/14 16:14:05;;;;;;;5.17;3.70;;;15.60;99.90;;;;;;6245933;23;20267;-70
2022/09/14 16:16:32;;;;;;;8.77;3.83;;;15.50;99.90;;;;;;6245697;23;20187;-69
2022/09/14 16:19:04;;;;;;;7.10;4.20;;;15.50;99.90;;;;;;6245408;23;20207;-71
2022/09/14 16:21:30;;;;;;;9.00;4.70;;;15.50;99.90;;;;;;6245830;23;20632;-70
2022/09/14 16:23:59;;;;;;;7.73;4.33;;;15.50;99.90;;;;;;6244018;23;20179;-70
2022/09/14 16:26:30;;;;;;;7.00;4.63;;;15.50;99.90;;;;;;6242967;23;20176;-69
2022/09/14 16:28:58;;;;;;;7.20;4.80;;;15.50;99.90;;;;;;6244273;23;20755;-68
2022/09/14 16:31:29;;;;;;;7.47;5.20;;;15.60;99.90;;;;;;6246104;23;20176;-74
2022/09/14 16:33:59;;;;;;;7.57;5.03;;;15.60;99.90;;;;;;6245778;23;20183;-71
2022/09/14 16:36:27;;;;;;;8.17;5.37;;;15.80;99.90;;;;;;6246675;23;20182;-69
2022/09/14 16:38:57;;;;;;;8.43;4.83;;;15.80;99.90;;;;;;6246194;23;20203;-69
2022/09/14 16:41:25;;;;;;;10.10;5.40;;;15.80;99.90;;;;;;6246573;23;20182;-68
2022/09/14 16:43:55;;;;;;;7.50;5.27;;;15.90;99.90;;;;;;6246396;23;20175;-67
2022/09/14 16:46:23;;;;;;;9.53;5.33;;;15.90;99.90;;;;;;6246330;23;20199;-68
2022/09/14 16:48:50;;;;;;;10.73;6.10;;;16.00;99.90;;;;;;6246067;23;20201;-69
2022/09/14 16:51:18;;;;;;;9.00;5.57;;;15.90;99.90;;;;;;6246062;23;20206;-71
2022/09/14 16:53:46;;;;;;;9.30;5.10;;;16.00;99.90;;;;;;6246437;23;20182;-69
2022/09/14 16:56:15;;;;;;;9.27;5.87;;;15.90;99.90;;;;;;6246183;23;20622;-68
2022/09/14 16:58:42;;;;;;;9.57;5.87;;;15.80;99.90;;;;;;6246135;23;20182;-68
2022/09/14 17:01:16;;;;;;;7.27;4.87;;;15.90;99.90;;;;;;6246176;23;20202;-67
2022/09/14 17:03:44;;;;;;;8.93;5.90;;;15.90;99.90;;;;;;6245934;23;20190;-68
2022/09/14 17:06:15;;;;;;;8.10;5.00;;;16.00;99.90;;;;;;6246423;23;20654;-68
2022/09/14 17:08:43;;;;;;;8.67;4.80;;;16.00;99.90;;;;;;6246042;23;20635;-70
2022/09/14 17:11:11;;;;;;;6.37;4.17;;;16.20;99.90;;;;;;6246333;23;20195;-68
2022/09/14 17:13:37;;;;;;;6.03;4.30;;;16.30;99.90;;;;;;6245961;23;20649;-68
2022/09/14 17:16:07;;;;;;;6.70;3.73;;;16.30;99.90;;;;;;6246365;23;20190;-68
2022/09/14 17:18:37;;;;;;;8.60;3.93;;;16.30;99.90;;;;;;6246354;23;20262;-68
2022/09/14 17:21:06;;;;;;;6.07;3.90;;;16.20;99.90;;;;;;6246118;23;20206;-68
2022/09/14 17:23:33;;;;;;;8.10;4.97;;;16.20;99.90;;;;;;6246628;23;20176;-76
2022/09/14 17:26:00;;;;;;;6.97;4.50;;;16.10;99.90;;;;;;6246164;23;20628;-72
2022/09/14 17:28:28;;;;;;;7.87;4.60;;;16.10;99.90;;;;;;6246413;23;20182;-72
2022/09/14 17:30:57;;;;;;;6.63;4.10;;;16.00;99.90;;;;;;6246665;23;20209;-68
2022/09/14 17:33:24;;;;;;;6.80;4.13;;;15.90;99.90;;;;;;6246053;23;20183;-68
2022/09/14 17:35:54;;;;;;;6.63;4.77;;;16.00;99.90;;;;;;6246465;23;20508;-74
2022/09/14 17:38:22;;;;;;;6.27;4.03;;;15.90;99.90;;;;;;6246372;23;20507;-68
2022/09/14 17:40:49;;;;;;;5.37;3.90;;;16.00;99.90;;;;;;6245685;23;20214;-68
2022/09/14 17:43:19;;;;;;;7.27;4.13;;;15.80;99.90;;;;;;6246239;23;20180;-68
2022/09/14 17:45:52;;;;;;;5.70;3.90;;;15.70;99.90;;;;;;6246034;23;20203;-69
2022/09/14 17:48:19;;;;;;;7.20;4.40;;;15.50;99.90;;;;;;6246047;23;20183;-69
2022/09/14 17:50:46;;;;;;;6.63;3.93;;;15.50;99.90;;;;;;6245167;23;20202;-71
2022/09/14 17:53:14;;;;;;;8.47;4.97;;;15.60;99.90;;;;;;6246180;23;20176;-73
2022/09/14 17:55:41;;;;;;;7.67;4.70;;;15.70;99.90;;;;;;6245394;23;20189;-68
2022/09/14 17:58:09;;;;;;;7.03;4.47;;;15.80;99.90;;;;;;6245186;23;20650;-68
2022/09/14 18:00:36;;;;;;;8.23;5.20;;;15.80;99.90;;;;;;6245538;23;20208;-69
2022/09/14 18:03:03;;;;;;;7.57;4.80;;;15.80;99.90;;;;;;6245477;23;20238;-69
2022/09/14 18:05:30;;;;;;;10.13;5.50;;;15.80;99.90;;;;;;6245295;23;20632;-68
2022/09/14 18:07:57;;;;;;;10.57;5.17;;;15.90;99.90;;;;;;6245730;23;20206;-76
2022/09/14 18:10:26;;;;;;;9.40;5.70;;;15.70;99.90;;;;;;6246053;23;20207;-68
2022/09/14 18:12:52;;;;;;;9.63;5.83;;;15.70;99.90;;;;;;6245764;23;20180;-69
2022/09/14 18:15:19;;;;;;;8.43;5.43;;;15.70;99.90;;;;;;6246051;23;20242;-68
2022/09/14 18:17:46;;;;;;;8.73;5.70;;;15.60;99.90;;;;;;6245957;23;20176;-73
2022/09/14 18:20:14;;;;;;;10.43;6.30;;;15.70;99.90;;;;;;6245708;23;20217;-68
2022/09/14 18:22:41;;;;;;;11.13;6.00;;;15.80;99.90;;;;;;6245567;23;20176;-71
2022/09/14 18:25:09;;;;;;;8.93;6.00;;;15.80;99.90;;;;;;6245340;23;20186;-67
2022/09/14 18:27:37;;;;;;;8.60;5.73;;;15.80;99.90;;;;;;6246035;23;20620;-73
2022/09/14 18:30:06;;;;;;;9.80;6.20;;;15.90;99.90;;;;;;6242100;23;20199;-68
2022/09/14 18:32:33;;;;;;;8.30;5.37;;;15.80;99.90;;;;;;6244804;23;20644;-75
2022/09/14 18:35:00;;;;;;;7.83;5.40;;;15.90;99.90;;;;;;6245236;23;20190;-68
2022/09/14 18:37:27;;;;;;;11.40;5.07;;;16.00;99.90;;;;;;6244943;23;20683;-70
2022/09/14 18:39:54;;;;;;;10.20;5.73;;;16.20;99.90;;;;;;6245048;23;20211;-68
2022/09/14 18:42:21;;;;;;;10.57;4.90;;;16.20;99.90;;;;;;6241574;23;20179;-68
2022/09/14 18:44:52;;;;;;;6.10;4.40;;;16.10;99.90;;;;;;6244839;23;20175;-68
2022/09/14 18:47:20;;;;;;;8.27;4.97;;;16.10;99.90;;;;;;6245459;23;20180;-69
2022/09/14 18:49:48;;;;;;;6.47;4.60;;;16.20;99.90;;;;;;6245097;23;20206;-68
2022/09/14 18:52:15;;;;;;;7.37;4.40;;;16.10;99.90;;;;;;6245689;23;20180;-67
2022/09/14 18:54:42;;;;;;;9.67;4.77;;;15.90;99.90;;;;;;6245489;23;20262;-69
2022/09/14 18:57:08;;;;;;;6.10;4.03;;;16.00;99.90;;;;;;6245454;23;20175;-68
2022/09/14 18:59:36;;;;;;;8.20;4.83;;;15.90;99.90;;;;;;6244881;23;20282;-71
2022/09/14 19:02:04;;;;;;;7.60;4.37;;;15.80;99.90;;;;;;6245503;23;20176;-75
2022/09/14 19:04:30;;;;;;;8.83;5.10;;;15.60;99.90;;;;;;6245579;23;20175;-68
2022/09/14 19:06:58;;;;;;;8.00;4.73;;;15.70;99.90;;;;;;6245623;23;20175;-68
2022/09/14 19:09:25;;;;;;;9.37;5.20;;;15.80;99.90;;;;;;6245555;23;20199;-69
2022/09/14 19:11:52;;;;;;;10.67;5.17;;;15.70;99.90;;;;;;6245862;23;20226;-69
2022/09/14 19:14:19;;;;;;;7.17;4.70;;;15.60;99.90;;;;;;6245368;23;20259;-68
2022/09/14 19:16:46;;;;;;;7.20;4.60;;;15.60;99.90;;;;;;6247287;23;20175;-68
2022/09/14 19:19:16;;;;;;;8.50;4.90;;;15.70;99.90;;;;;;6247244;23;20258;-68
2022/09/14 19:21:44;;;;;;;9.03;5.20;;;15.80;99.90;;;;;;6247702;23;20179;-68
2022/09/14 19:24:13;;;;;;;7.67;4.77;;;15.70;99.90;;;;;;6247619;23;20211;-70
2022/09/14 19:26:42;;;;;;;8.40;4.93;;;15.80;99.90;;;;;;6247442;23;20650;-69
2022/09/14 19:29:10;;;;;;;8.03;4.90;;;15.80;99.90;;;;;;6247619;23;20211;-70
2022/09/14 19:31:37;;;;;;;9.50;4.60;;;15.80;99.90;;;;;;6247651;23;20186;-68
2022/09/14 19:34:04;;;;;;;7.10;4.23;;;15.80;99.90;;;;;;6247050;23;20184;-69
2022/09/14 19:36:34;;;;;;;7.40;4.83;;;15.70;99.90;;;;;;6247248;23;20179;-69
2022/09/14 19:39:02;;;;;;;7.93;4.50;;;15.90;99.90;;;;;;6247467;23;20180;-68
2022/09/14 19:41:30;;;;;;;9.73;4.90;;;16.00;99.90;;;;;;6247525;23;20294;-69
2022/09/14 19:43:57;;;;;;;9.10;4.83;;;15.80;99.90;;;;;;6247461;23;20226;-73
2022/09/14 19:46:24;;;;;;;8.70;5.00;;;15.70;99.90;;;;;;6247679;23;20488;-69
2022/09/14 19:48:52;;;;;;;9.57;4.30;;;15.80;99.90;;;;;;6247359;23;20176;-68
2022/09/14 19:51:21;;;;;;;10.07;4.73;;;16.00;99.90;;;;;;6247457;23;20218;-68
2022/09/14 19:53:50;;;;;;;7.60;4.57;;;16.00;99.90;;;;;;6247044;23;20654;-68
2022/09/14 19:56:20;;;;;;;8.33;4.67;;;16.10;99.90;;;;;;6247515;23;20234;-75
2022/09/14 19:58:50;;;;;;;8.93;4.27;;;16.20;99.90;;;;;;6247545;23;20565;-76
2022/09/14 20:01:18;;;;;;;6.80;4.50;;;16.00;99.90;;;;;;6246704;23;20207;-70
2022/09/14 20:03:45;;;;;;;7.40;3.57;;;16.10;99.90;;;;;;6247355;23;20185;-69
2022/09/14 20:06:18;;;;;;;7.90;4.37;;;16.10;99.90;;;;;;6246846;23;20639;-69
2022/09/14 20:08:45;;;;;;;9.80;4.60;;;16.10;99.90;;;;;;6247400;23;20179;-68
2022/09/14 20:11:15;;;;;;;8.27;4.30;;;16.10;99.90;;;;;;6247496;23;20195;-71
2022/09/14 20:13:41;;;;;;;7.50;4.57;;;16.10;99.90;;;;;;6247500;23;20181;-68
2022/09/14 20:16:11;;;;;;;8.53;5.03;;;16.20;99.90;;;;;;6247026;23;20180;-77
2022/09/14 20:18:38;;;;;;;8.13;4.30;;;16.20;99.90;;;;;;6247131;23;20258;-72
2022/09/14 20:21:08;;;;;;;8.93;4.10;;;16.20;99.90;;;;;;6247089;23;20287;-70
2022/09/14 20:23:35;;;;;;;9.37;4.90;;;16.20;99.90;;;;;;6247309;23;20286;-70
2022/09/14 20:26:03;;;;;;;8.70;4.77;;;16.20;99.90;;;;;;6247158;23;20183;-69
2022/09/14 20:28:33;;;;;;;9.87;5.00;;;16.30;99.90;;;;;;6247166;23;20182;-74
2022/09/14 20:31:01;;;;;;;8.20;4.73;;;16.40;99.90;;;;;;6247298;23;20226;-72
